CSD2 weather

Sundre (Hospital & Health Care Centre) Heliport
Sundre, Alberta, Canada

Public forecast

Using degrees Celsius for public forecast. Weather courtesy of forecast.io.

METAR (pilot weather report)

Closest report is Red Deer Regional Airport, 35.5 nm (65.8 km) NE. Retrieved 2019/07/23 19:00 UTC (23 minutes ago):

CYQF 231900Z 34003KT 15SM FEW040 26/16 A3002 RMK CU1 CU TR SLP163 DENSITY ALT 4900FT

TAF (pilot weather forecast)

Closest forecast is Red Deer Regional Airport, 35.5 nm (65.8 km) NE. Retrieved 2019/07/23 18:42 UTC (41 minutes ago):

TAF TAF CYQF 231740Z 2318/2406 VRB03KT P6SM FEW140 FM232000 11006KT P6SM SKC FM240000 12008KT P6SM SCT060 TEMPO 2400/2404 P6SM -SHRA BKN060 PROB30 2400/2404 VRB15G25KT 3SM TSRA BKN060CB FM240400 28008KT P6SM FEW060 RMK NXT FCST BY 240000Z